createdAt,value
2022-08-05T00:00:52.402Z,988.46
2022-08-05T00:01:54.174Z,988.57
2022-08-05T00:02:55.732Z,988.58
2022-08-05T00:03:57.681Z,988.63
2022-08-05T00:04:59.222Z,988.72
2022-08-05T00:06:04.909Z,988.65
2022-08-05T00:07:26.936Z,988.62
2022-08-05T00:08:04.902Z,988.62
2022-08-05T00:09:12.762Z,988.61
2022-08-05T00:10:07.857Z,988.53
2022-08-05T00:11:20.683Z,988.43
2022-08-05T00:12:13.169Z,988.39
2022-08-05T00:13:18.599Z,988.49
2022-08-05T00:14:16.943Z,988.53
2022-08-05T00:15:55.172Z,988.59
2022-08-05T00:16:18.321Z,988.49
2022-08-05T00:17:20.283Z,988.42
2022-08-05T00:18:22.623Z,988.37
2022-08-05T00:19:24.948Z,988.38
2022-08-05T00:20:28.748Z,988.35
2022-08-05T00:21:26.997Z,988.18
2022-08-05T00:22:28.702Z,988.05
2022-08-05T00:23:44.384Z,987.83
2022-08-05T00:24:32.270Z,987.67
2022-08-05T00:25:45.725Z,987.61
2022-08-05T00:25:49.126Z,987.59
2022-08-05T00:26:52.208Z,987.57
2022-08-05T00:27:52.560Z,987.41
2022-08-05T00:28:54.322Z,987.35
2022-08-05T00:29:56.401Z,987.31
2022-08-05T00:30:57.781Z,987.31
2022-08-05T00:32:11.147Z,987.26
2022-08-05T00:33:01.218Z,987.28
2022-08-05T00:34:55.263Z,987.34
2022-08-05T00:35:07.529Z,987.35
2022-08-05T00:36:16.503Z,987.36
2022-08-05T00:37:12.996Z,987.31
2022-08-05T00:38:09.887Z,987.38
2022-08-05T00:39:14.000Z,987.35
2022-08-05T00:40:13.362Z,987.39
2022-08-05T00:41:15.124Z,987.39
2022-08-05T00:42:31.589Z,987.4
2022-08-05T00:43:18.623Z,987.44
2022-08-05T00:44:20.845Z,987.43
2022-08-05T00:45:28.008Z,987.47
2022-08-05T00:46:42.515Z,987.49
2022-08-05T00:47:25.541Z,987.53
2022-08-05T00:48:27.472Z,987.61
2022-08-05T00:49:32.507Z,987.51
2022-08-05T00:50:30.735Z,987.67
2022-08-05T00:51:51.219Z,987.66
2022-08-05T00:52:34.176Z,987.78
2022-08-05T00:53:59.895Z,987.79
2022-08-05T00:54:37.646Z,987.73
2022-08-05T00:55:42.912Z,987.76
2022-08-05T00:56:41.116Z,987.66
2022-08-05T00:57:55.696Z,987.56
2022-08-05T00:58:45.016Z,987.63
2022-08-05T00:59:46.351Z,987.63
2022-08-05T01:00:50.334Z,987.66
2022-08-05T01:01:49.960Z,987.64
2022-08-05T01:02:51.547Z,987.73
2022-08-05T01:03:53.256Z,987.81
2022-08-05T01:04:54.977Z,987.81
2022-08-05T01:05:56.720Z,987.81
2022-08-05T01:06:58.519Z,987.86
2022-08-05T01:08:40.762Z,987.81
2022-08-05T01:09:03.007Z,987.73
2022-08-05T01:10:03.701Z,987.7
2022-08-05T01:11:05.384Z,987.65
2022-08-05T01:12:17.910Z,987.58
2022-08-05T01:13:13.350Z,987.55
2022-08-05T01:14:10.665Z,987.6
2022-08-05T01:15:35.594Z,987.46
2022-08-05T01:16:14.063Z,987.39
2022-08-05T01:17:15.847Z,987.38
2022-08-05T01:18:17.562Z,987.45
2022-08-05T01:19:19.307Z,987.53
2022-08-05T01:20:22.391Z,987.35
2022-08-05T01:21:23.179Z,987.29
2022-08-05T01:22:27.979Z,987.21
2022-08-05T01:23:26.206Z,987.2
2022-08-05T01:24:30.169Z,987.06
2022-08-05T01:25:40.637Z,986.97
2022-08-05T01:26:31.416Z,986.95
2022-08-05T01:27:33.218Z,986.91
2022-08-05T01:28:34.975Z,986.84
2022-08-05T01:29:36.609Z,986.74
2022-08-05T01:30:38.363Z,986.68
2022-08-05T01:31:42.477Z,986.62
2022-08-05T01:32:41.850Z,986.6
2022-08-05T01:33:49.295Z,986.45
2022-08-05T01:34:45.287Z,986.36
2022-08-05T01:35:52.107Z,986.27
2022-08-05T01:36:48.861Z,986.19
2022-08-05T01:37:50.494Z,986.11
2022-08-05T01:38:52.417Z,986.01
2022-08-05T01:39:54.034Z,985.99
2022-08-05T01:40:55.707Z,985.99
2022-08-05T01:41:57.472Z,986
2022-08-05T01:42:59.160Z,986.01
2022-08-05T01:44:00.925Z,985.91
2022-08-05T01:45:03.357Z,985.86
2022-08-05T01:46:07.380Z,985.99
2022-08-05T01:47:06.834Z,986.11
2022-08-05T01:48:10.326Z,986.17
2022-08-05T01:49:22.681Z,986.15
2022-08-05T01:50:15.049Z,986.13
2022-08-05T01:51:13.165Z,986.15
2022-08-05T01:52:17.689Z,986.15
2022-08-05T01:53:16.515Z,986.14
2022-08-05T01:54:18.232Z,986.15
2022-08-05T01:55:19.986Z,986.18
2022-08-05T01:58:09.565Z,986.2
2022-08-05T01:58:11.256Z,986.22
2022-08-05T01:58:40.989Z,986.28
2022-08-05T01:59:26.920Z,986.29
2022-08-05T02:00:30.248Z,986.26
2022-08-05T02:01:31.648Z,986.25
2022-08-05T02:02:32.246Z,986.35
2022-08-05T02:03:34.157Z,986.52
2022-08-05T02:04:35.631Z,986.62
2022-08-05T02:05:37.358Z,986.8
2022-08-05T02:06:39.344Z,986.95
2022-08-05T02:07:40.811Z,987.08
2022-08-05T02:08:54.795Z,987.09
2022-08-05T02:09:44.282Z,987.13
2022-08-05T02:10:46.011Z,987.09
2022-08-05T02:11:48.106Z,987.12
2022-08-05T02:12:51.027Z,987.07
2022-08-05T02:13:53.790Z,987.05
2022-08-05T02:14:53.249Z,986.91
2022-08-05T02:15:54.685Z,986.98
2022-08-05T02:16:56.413Z,987.01
2022-08-05T02:18:32.282Z,987.06
2022-08-05T02:18:59.870Z,987.18
2022-08-05T02:20:01.655Z,987.22
2022-08-05T02:21:06.396Z,987.41
2022-08-05T02:22:05.095Z,987.41
2022-08-05T02:23:06.817Z,987.59
2022-08-05T02:24:08.591Z,987.61
2022-08-05T02:25:12.621Z,987.62
2022-08-05T02:26:12.016Z,987.64
2022-08-05T02:27:13.907Z,987.77
2022-08-05T02:28:15.486Z,987.93
2022-08-05T02:29:21.292Z,988.07
2022-08-05T02:30:18.993Z,988
2022-08-05T02:31:21.106Z,987.95
2022-08-05T02:32:24.146Z,987.88
2022-08-05T02:33:35.950Z,987.84
2022-08-05T02:34:26.040Z,987.8
2022-08-05T02:35:33.174Z,987.84
2022-08-05T02:36:31.413Z,987.83
2022-08-05T02:37:32.087Z,987.82
2022-08-05T02:38:35.370Z,987.8
2022-08-05T02:39:34.612Z,987.81
2022-08-05T02:40:36.349Z,987.73
2022-08-05T02:41:58.183Z,987.75
2022-08-05T02:42:39.804Z,987.74
2022-08-05T02:44:02.950Z,987.7
2022-08-05T02:44:43.280Z,987.7
2022-08-05T02:45:52.929Z,987.62
2022-08-05T02:46:58.754Z,987.59
2022-08-05T02:48:07.018Z,987.61
2022-08-05T02:48:50.193Z,987.67
2022-08-05T02:49:51.978Z,987.66
2022-08-05T02:50:53.669Z,987.7
2022-08-05T02:52:03.710Z,987.69
2022-08-05T02:52:57.129Z,987.69
2022-08-05T02:54:03.353Z,987.55
2022-08-05T02:55:01.959Z,987.41
2022-08-05T02:56:02.447Z,987.24
2022-08-05T02:57:05.136Z,987.16
2022-08-05T02:58:11.486Z,987.15
2022-08-05T02:59:07.522Z,987.12
2022-08-05T03:00:09.298Z,987.15
2022-08-05T03:01:11.095Z,987.16
2022-08-05T03:02:12.784Z,987.12
2022-08-05T03:03:14.502Z,987.1
2022-08-05T03:04:16.201Z,987.05
2022-08-05T03:05:17.945Z,986.95
2022-08-05T03:06:53.820Z,986.91
2022-08-05T03:07:40.666Z,986.88
2022-08-05T03:08:26.959Z,986.8
2022-08-05T03:09:27.074Z,986.66
2022-08-05T03:10:26.779Z,986.51
2022-08-05T03:11:53.184Z,986.59
2022-08-05T03:12:30.090Z,986.72
2022-08-05T03:13:52.047Z,986.81
2022-08-05T03:14:33.567Z,986.91
2022-08-05T03:15:35.368Z,986.96
2022-08-05T03:16:37.029Z,987.15
2022-08-05T03:17:41.750Z,987.65
2022-08-05T03:18:42.078Z,988.22
2022-08-05T03:19:42.331Z,988.6
2022-08-05T03:20:48.525Z,988.82
2022-08-05T03:21:49.329Z,988.86
2022-08-05T03:22:50.531Z,988.92
2022-08-05T03:23:49.230Z,989
2022-08-05T03:24:52.252Z,988.93
2022-08-05T03:26:05.084Z,988.96
2022-08-05T03:26:54.413Z,988.94
2022-08-05T03:27:59.018Z,988.94
2022-08-05T03:28:57.955Z,988.99
2022-08-05T03:30:07.365Z,988.99
2022-08-05T03:31:01.480Z,989.01
2022-08-05T03:32:03.085Z,989.08
2022-08-05T03:33:05.585Z,989.12
2022-08-05T03:34:06.611Z,989.11
2022-08-05T03:35:08.937Z,989.11
2022-08-05T03:36:12.060Z,989.06
2022-08-05T03:37:11.726Z,989.09
2022-08-05T03:38:14.527Z,989.16
2022-08-05T03:39:20.303Z,989.2
2022-08-05T03:40:31.276Z,989.27
2022-08-05T03:41:18.737Z,989.31
2022-08-05T03:42:20.396Z,989.35
2022-08-05T03:44:09.168Z,989.35
2022-08-05T03:44:23.898Z,989.33
2022-08-05T03:45:27.069Z,989.3
2022-08-05T03:46:29.952Z,989.32
2022-08-05T03:47:30.425Z,989.33
2022-08-05T03:48:30.930Z,989.3
2022-08-05T03:49:51.536Z,989.34
2022-08-05T03:50:34.261Z,989.3
2022-08-05T03:52:38.510Z,989.29
2022-08-05T03:54:59.271Z,989.29
2022-08-05T03:55:50.693Z,989.28
2022-08-05T03:56:01.624Z,989.21
2022-08-05T03:56:05.757Z,989.26
2022-08-05T03:56:44.691Z,989.24
2022-08-05T03:57:46.640Z,989.21
2022-08-05T03:58:48.142Z,989.09
2022-08-05T03:59:54.912Z,989.06
2022-08-05T04:00:51.727Z,989.01
2022-08-05T04:01:53.434Z,988.91
2022-08-05T04:02:58.666Z,988.82
2022-08-05T04:04:08.823Z,988.77
2022-08-05T04:04:58.555Z,988.71
2022-08-05T04:06:00.342Z,988.64
2022-08-05T04:07:02.120Z,988.58
2022-08-05T04:08:03.750Z,988.53
2022-08-05T04:09:05.530Z,988.55
2022-08-05T04:10:07.233Z,988.52
2022-08-05T04:11:10.008Z,988.53
2022-08-05T04:12:19.542Z,988.52
2022-08-05T04:13:12.532Z,988.57
2022-08-05T04:14:17.990Z,988.58
2022-08-05T04:15:15.922Z,988.6
2022-08-05T04:16:25.093Z,988.73
2022-08-05T04:17:19.500Z,988.73
2022-08-05T04:18:22.631Z,988.76
2022-08-05T04:19:23.429Z,988.85
2022-08-05T04:20:24.670Z,988.92
2022-08-05T04:22:09.084Z,989.01
2022-08-05T04:22:28.067Z,989.04
2022-08-05T04:24:05.222Z,988.99
2022-08-05T04:24:31.557Z,989
2022-08-05T04:25:56.543Z,989.04
2022-08-05T04:26:35.046Z,989.05
2022-08-05T04:27:43.689Z,989.08
2022-08-05T04:28:38.447Z,989.13
2022-08-05T04:29:40.155Z,989.25
2022-08-05T04:30:42.993Z,989.22
2022-08-05T04:31:43.636Z,989.24
2022-08-05T04:32:45.602Z,989.23
2022-08-05T04:34:18.181Z,989.16
2022-08-05T04:34:48.897Z,989.08
2022-08-05T04:36:11.128Z,989.01
2022-08-05T04:36:52.450Z,989.01
2022-08-05T04:38:00.850Z,988.99
2022-08-05T04:38:55.838Z,989.01
2022-08-05T04:39:57.644Z,988.99
2022-08-05T04:40:59.259Z,989.01
2022-08-05T04:42:01.820Z,989.01
2022-08-05T04:43:02.859Z,989.14
2022-08-05T04:44:09.503Z,989.05
2022-08-05T04:45:06.259Z,989.13
2022-08-05T04:46:08.019Z,989.14
2022-08-05T04:47:10.494Z,989.12
2022-08-05T04:48:16.367Z,989.07
2022-08-05T04:49:14.751Z,989.08
2022-08-05T04:50:14.866Z,989.1
2022-08-05T04:51:16.760Z,989.13
2022-08-05T04:52:18.647Z,989.16
2022-08-05T04:53:20.113Z,989.18
2022-08-05T04:54:21.802Z,989.19
2022-08-05T04:56:14.605Z,989.2
2022-08-05T04:56:35.273Z,989.21
2022-08-05T04:57:29.071Z,989.15
2022-08-05T04:58:28.786Z,989.08
2022-08-05T04:59:38.391Z,989.05
2022-08-05T05:00:32.261Z,989.05
2022-08-05T05:02:07.207Z,989.04
2022-08-05T05:02:41.921Z,989.09
2022-08-05T05:03:42.267Z,989.15
2022-08-05T05:04:43.931Z,989.13
2022-08-05T05:06:40.409Z,989.17
2022-08-05T05:06:44.681Z,989.28
2022-08-05T05:07:45.640Z,989.34
2022-08-05T05:08:46.099Z,989.44
2022-08-05T05:09:47.841Z,989.57
2022-08-05T05:10:56.144Z,989.58
2022-08-05T05:11:55.496Z,989.58
2022-08-05T05:12:53.210Z,989.55
2022-08-05T05:13:55.307Z,989.46
2022-08-05T05:14:56.598Z,989.38
2022-08-05T05:16:02.164Z,989.37
2022-08-05T05:17:00.019Z,989.33
2022-08-05T05:18:02.229Z,989.26
2022-08-05T05:19:18.520Z,989.28
2022-08-05T05:20:05.382Z,989.37
2022-08-05T05:21:06.917Z,989.51
2022-08-05T05:22:24.169Z,989.6
2022-08-05T05:23:19.476Z,989.67
2022-08-05T05:24:12.250Z,989.71
2022-08-05T05:25:16.495Z,989.72
2022-08-05T05:26:15.726Z,989.73
2022-08-05T05:27:17.418Z,989.64
2022-08-05T05:28:19.189Z,989.64
2022-08-05T05:29:20.784Z,989.53
2022-08-05T05:30:30.914Z,989.41
2022-08-05T05:31:24.262Z,989.33
2022-08-05T05:32:26.031Z,989.29
2022-08-05T05:33:27.747Z,989.24
2022-08-05T05:34:29.535Z,989.14
2022-08-05T05:35:31.587Z,989.12
2022-08-05T05:36:33.126Z,989.13
2022-08-05T05:37:58.781Z,989.17
2022-08-05T05:38:36.404Z,989.19
2022-08-05T05:39:38.227Z,989.2
2022-08-05T05:40:43.799Z,989.24
2022-08-05T05:41:41.895Z,989.24
2022-08-05T05:42:43.370Z,989.23
2022-08-05T05:43:56.905Z,989.3
2022-08-05T05:44:46.853Z,989.34
2022-08-05T05:45:48.677Z,989.3
2022-08-05T05:46:50.356Z,989.24
2022-08-05T05:48:07.140Z,989.08
2022-08-05T05:48:53.919Z,989.03
2022-08-05T05:50:01.263Z,989.06
2022-08-05T05:50:57.262Z,989.1
2022-08-05T05:51:58.978Z,989.12
2022-08-05T05:53:00.897Z,989.21
2022-08-05T05:54:02.515Z,989.26
2022-08-05T05:55:07.407Z,989.22
2022-08-05T05:56:05.887Z,989.23
2022-08-05T05:57:13.475Z,989.22
2022-08-05T05:58:09.362Z,989.15
2022-08-05T05:59:11.206Z,989.15
2022-08-05T06:00:12.882Z,989.09
2022-08-05T06:01:15.174Z,988.94
2022-08-05T06:02:16.430Z,988.83
2022-08-05T06:03:39.844Z,988.85
2022-08-05T06:04:19.832Z,988.92
2022-08-05T06:05:21.666Z,988.88
2022-08-05T06:06:27.772Z,988.9
2022-08-05T06:07:41.371Z,988.8
2022-08-05T06:08:32.439Z,988.79
2022-08-05T06:09:36.346Z,988.77
2022-08-05T06:10:36.679Z,988.76
2022-08-05T06:11:32.008Z,988.78
2022-08-05T06:12:33.638Z,988.77
2022-08-05T06:13:40.511Z,988.82
2022-08-05T06:14:37.113Z,988.85
2022-08-05T06:16:30.229Z,988.79
2022-08-05T06:16:40.568Z,988.7
2022-08-05T06:17:52.439Z,988.57
2022-08-05T06:18:44.039Z,988.48
2022-08-05T06:19:56.542Z,988.43
2022-08-05T06:20:47.729Z,988.39
2022-08-05T06:21:49.924Z,988.39
2022-08-05T06:22:51.147Z,988.43
2022-08-05T06:23:52.855Z,988.56
2022-08-05T06:24:54.456Z,988.6
2022-08-05T06:26:13.785Z,988.63
2022-08-05T06:26:58.047Z,988.53
2022-08-05T06:28:10.473Z,988.43
2022-08-05T06:29:03.436Z,988.16
2022-08-05T06:30:16.851Z,988.02
2022-08-05T06:31:10.968Z,988.03
2022-08-05T06:32:21.378Z,988.22
2022-08-05T06:33:10.004Z,988.34
2022-08-05T06:34:10.278Z,988.37
2022-08-05T06:35:15.390Z,988.32
2022-08-05T06:36:13.676Z,988.36
2022-08-05T06:37:15.457Z,988.39
2022-08-05T06:38:17.083Z,988.44
2022-08-05T06:39:18.851Z,988.51
2022-08-05T06:40:21.111Z,988.41
2022-08-05T06:41:22.431Z,988.3
2022-08-05T06:42:23.960Z,988.24
2022-08-05T06:43:57.605Z,988.17
2022-08-05T06:44:27.529Z,988.32
2022-08-05T06:45:44.730Z,988.48
2022-08-05T06:46:30.898Z,988.59
2022-08-05T06:48:44.335Z,988.62
2022-08-05T06:48:53.820Z,988.72
2022-08-05T06:50:02.017Z,988.78
2022-08-05T06:50:37.861Z,988.95
2022-08-05T06:51:40.804Z,989.06
2022-08-05T06:52:41.337Z,989.2
2022-08-05T06:53:43.046Z,989.35
2022-08-05T06:54:44.808Z,989.54
2022-08-05T06:55:46.605Z,989.62
2022-08-05T06:56:54.924Z,989.82
2022-08-05T06:57:58.065Z,989.86
2022-08-05T06:58:51.706Z,989.9
2022-08-05T06:59:53.544Z,990.03
2022-08-05T07:00:55.315Z,990.16
2022-08-05T07:01:56.927Z,990.19
2022-08-05T07:02:58.853Z,990.11
2022-08-05T07:04:00.680Z,990.11
2022-08-05T07:05:02.125Z,990.09
2022-08-05T07:06:05.757Z,990.1
2022-08-05T07:07:07.865Z,990.01
2022-08-05T07:08:10.905Z,990
2022-08-05T07:09:09.067Z,989.95
2022-08-05T07:10:10.899Z,989.91
2022-08-05T07:11:15.516Z,989.95
2022-08-05T07:12:14.299Z,989.99
2022-08-05T07:13:15.994Z,989.99
2022-08-05T07:14:28.821Z,989.95
2022-08-05T07:15:34.332Z,989.96
2022-08-05T07:17:58.538Z,989.85
2022-08-05T07:18:07.045Z,989.9
2022-08-05T07:18:28.902Z,989.86
2022-08-05T07:20:05.780Z,989.89
2022-08-05T07:20:33.283Z,989.93
2022-08-05T07:21:39.961Z,990
2022-08-05T07:22:31.619Z,989.99
2022-08-05T07:23:33.377Z,989.95
2022-08-05T07:24:43.716Z,989.87
2022-08-05T07:25:56.077Z,989.89
2022-08-05T07:26:38.550Z,989.98
2022-08-05T07:28:01.474Z,989.93
2022-08-05T07:28:42.026Z,989.87
2022-08-05T07:30:22.803Z,989.89
2022-08-05T07:30:50.337Z,989.84
2022-08-05T07:31:54.797Z,989.85
2022-08-05T07:32:50.869Z,989.85
2022-08-05T07:33:50.759Z,990
2022-08-05T07:34:52.423Z,989.96
2022-08-05T07:36:01.624Z,990.01
2022-08-05T07:36:55.901Z,990.01
2022-08-05T07:37:57.665Z,990.1
2022-08-05T07:38:59.413Z,990.13
2022-08-05T07:40:26.240Z,990.16
2022-08-05T07:41:35.296Z,990.16
2022-08-05T07:42:14.488Z,990.14
2022-08-05T07:43:14.493Z,990.18
2022-08-05T07:44:14.060Z,990.15
2022-08-05T07:45:09.766Z,990.14
2022-08-05T07:46:24.830Z,990.18
2022-08-05T07:47:13.455Z,990.19
2022-08-05T07:48:15.006Z,990.16
2022-08-05T07:49:18.194Z,990.19
2022-08-05T07:50:18.479Z,990.16
2022-08-05T07:51:23.651Z,990.16
2022-08-05T07:52:23.816Z,990.12
2022-08-05T07:53:23.723Z,990.15
2022-08-05T07:54:26.480Z,990.11
2022-08-05T07:56:05.142Z,990.09
2022-08-05T07:56:59.883Z,990.09
2022-08-05T07:57:42.037Z,990.04
2022-08-05T07:58:54.712Z,990.08
2022-08-05T07:59:40.024Z,990.03
2022-08-05T08:00:35.832Z,990.01
2022-08-05T08:01:41.651Z,990.01
2022-08-05T08:03:13.654Z,990.05
2022-08-05T08:03:44.365Z,990.05
2022-08-05T08:04:42.874Z,990.09
2022-08-05T08:05:47.572Z,990.01
2022-08-05T08:06:46.320Z,990.02
2022-08-05T08:07:59.154Z,990.03
2022-08-05T08:08:49.715Z,990.02
2022-08-05T08:09:52.599Z,989.97
2022-08-05T08:10:53.186Z,990.04
2022-08-05T08:11:59.909Z,990.03
2022-08-05T08:12:58.502Z,990.05
2022-08-05T08:14:00.704Z,990.07
2022-08-05T08:15:02.062Z,990.05
2022-08-05T08:16:35.200Z,989.99
2022-08-05T08:17:03.574Z,990.01
2022-08-05T08:18:13.786Z,989.95
2022-08-05T08:19:07.044Z,989.93
2022-08-05T08:20:23.441Z,989.93
2022-08-05T08:21:15.949Z,989.96
2022-08-05T08:22:12.267Z,989.96
2022-08-05T08:24:02.164Z,990
2022-08-05T08:24:15.703Z,989.99
2022-08-05T08:25:17.983Z,989.99
2022-08-05T08:26:29.392Z,989.98
2022-08-05T08:27:21.032Z,990.01
2022-08-05T08:28:35.754Z,989.96
2022-08-05T08:30:05.222Z,990
2022-08-05T08:30:29.744Z,990.01
2022-08-05T08:31:27.874Z,989.98
2022-08-05T08:32:29.637Z,990.03
2022-08-05T08:33:37.522Z,989.99
2022-08-05T08:34:33.295Z,990
2022-08-05T08:35:41.224Z,989.98
2022-08-05T08:36:50.486Z,989.95
2022-08-05T08:37:38.252Z,989.89
2022-08-05T08:38:40.121Z,989.87
2022-08-05T08:39:49.320Z,989.81
2022-08-05T08:40:47.779Z,989.77
2022-08-05T08:41:52.295Z,989.77
2022-08-05T08:42:50.930Z,989.75
2022-08-05T08:45:16.430Z,989.76
2022-08-05T08:45:22.228Z,989.82
2022-08-05T08:45:52.118Z,989.82
2022-08-05T08:46:53.874Z,989.81
2022-08-05T08:48:11.743Z,989.85
2022-08-05T08:49:07.795Z,989.86
2022-08-05T08:50:22.802Z,989.85
2022-08-05T08:51:22.367Z,989.84
2022-08-05T08:52:13.122Z,989.92
2022-08-05T08:53:12.000Z,989.94
2022-08-05T08:54:06.029Z,989.94
2022-08-05T08:55:13.083Z,989.92
2022-08-05T08:56:09.551Z,989.93
2022-08-05T08:57:11.868Z,989.94
2022-08-05T08:58:13.379Z,989.92
2022-08-05T08:59:19.417Z,989.88
2022-08-05T09:00:16.464Z,989.91
2022-08-05T09:01:18.741Z,989.84
2022-08-05T09:02:20.039Z,989.76
2022-08-05T09:03:21.648Z,989.71
2022-08-05T09:04:23.383Z,989.71
2022-08-05T09:05:38.572Z,989.62
2022-08-05T09:06:30.005Z,989.64
2022-08-05T09:07:39.550Z,989.57
2022-08-05T09:08:30.451Z,989.63
2022-08-05T09:09:34.705Z,989.63
2022-08-05T09:10:33.785Z,989.64
2022-08-05T09:11:50.747Z,989.75
2022-08-05T09:12:37.230Z,989.84
2022-08-05T09:14:10.344Z,989.87
2022-08-05T09:14:57.460Z,989.89
2022-08-05T09:15:42.444Z,989.87
2022-08-05T09:16:48.578Z,989.97
2022-08-05T09:17:49.908Z,990.02
2022-08-05T09:18:47.647Z,990.09
2022-08-05T09:19:55.206Z,990.14
2022-08-05T09:20:51.192Z,990.12
2022-08-05T09:22:22.621Z,990.14
2022-08-05T09:22:54.668Z,990.05
2022-08-05T09:24:00.658Z,990.1
2022-08-05T09:24:58.145Z,990.05
2022-08-05T09:26:03.980Z,989.98
2022-08-05T09:27:01.541Z,989.97
2022-08-05T09:28:06.431Z,989.96
2022-08-05T09:29:05.023Z,990.04
2022-08-05T09:30:07.075Z,990.04
2022-08-05T09:31:22.570Z,989.96
2022-08-05T09:32:45.820Z,989.94
2022-08-05T09:33:15.280Z,989.88
2022-08-05T09:34:13.663Z,989.96
2022-08-05T09:35:26.493Z,989.99
2022-08-05T09:36:17.129Z,989.98
2022-08-05T09:37:18.883Z,990.02
2022-08-05T09:38:27.549Z,990.05
2022-08-05T09:39:22.558Z,990.01
2022-08-05T09:40:24.126Z,989.96
2022-08-05T09:41:25.882Z,989.98
2022-08-05T09:42:28.044Z,989.95
2022-08-05T09:43:41.421Z,989.91
2022-08-05T09:44:31.047Z,989.9
2022-08-05T09:46:06.176Z,989.88
2022-08-05T09:46:35.062Z,989.87
2022-08-05T09:47:55.516Z,989.83
2022-08-05T09:48:37.946Z,989.81
2022-08-05T09:49:54.914Z,989.79
2022-08-05T09:50:44.850Z,989.85
2022-08-05T09:51:43.160Z,989.83
2022-08-05T09:52:45.413Z,989.88
2022-08-05T09:53:54.086Z,989.91
2022-08-05T09:54:48.482Z,989.97
2022-08-05T09:55:58.137Z,989.99
2022-08-05T09:56:52.539Z,990.02
2022-08-05T09:57:54.572Z,989.98
2022-08-05T09:58:55.379Z,989.96
2022-08-05T09:59:57.066Z,990
2022-08-05T10:00:58.778Z,990
2022-08-05T10:02:00.684Z,990.05
2022-08-05T10:03:02.331Z,990.08
2022-08-05T10:04:03.995Z,990.09
2022-08-05T10:05:05.904Z,990.04
2022-08-05T10:06:07.775Z,990.05
2022-08-05T10:07:19.548Z,990.05
2022-08-05T10:08:37.228Z,990.09
2022-08-05T10:09:27.381Z,990.07
2022-08-05T10:10:15.760Z,990.1
2022-08-05T10:11:16.128Z,990.13
2022-08-05T10:12:18.711Z,990.17
2022-08-05T10:13:19.614Z,990.13
2022-08-05T10:14:21.420Z,990.11
2022-08-05T10:15:23.024Z,990.11
2022-08-05T10:16:24.806Z,990.11
2022-08-05T10:17:38.078Z,990.22
2022-08-05T10:18:28.247Z,990.23
2022-08-05T10:19:46.164Z,990.24
2022-08-05T10:20:31.701Z,990.22
2022-08-05T10:21:35.190Z,990.24
2022-08-05T10:22:38.028Z,990.19
2022-08-05T10:23:59.431Z,990.22
2022-08-05T10:24:39.805Z,990.24
2022-08-05T10:25:40.414Z,990.29
2022-08-05T10:26:48.934Z,990.3
2022-08-05T10:28:13.105Z,990.33
2022-08-05T10:28:46.335Z,990.33
2022-08-05T10:30:06.358Z,990.32
2022-08-05T10:32:52.142Z,990.32
2022-08-05T10:32:53.046Z,990.3
2022-08-05T10:33:00.835Z,990.33
2022-08-05T10:33:54.790Z,990.36
2022-08-05T10:34:56.100Z,990.35
2022-08-05T10:35:59.702Z,990.3
2022-08-05T10:36:59.580Z,990.23
2022-08-05T10:38:01.228Z,990.22
2022-08-05T10:39:10.226Z,990.2
2022-08-05T10:40:18.327Z,990.22
2022-08-05T10:41:06.555Z,990.22
2022-08-05T10:42:08.429Z,990.22
2022-08-05T10:43:11.131Z,990.19
2022-08-05T10:44:11.674Z,990.18
2022-08-05T10:45:23.986Z,990.23
2022-08-05T10:46:15.080Z,990.23
2022-08-05T10:47:25.879Z,990.23
2022-08-05T10:48:31.877Z,990.27
2022-08-05T10:49:27.052Z,990.31
2022-08-05T10:50:36.484Z,990.32
2022-08-05T10:51:28.758Z,990.36
2022-08-05T10:52:25.760Z,990.36
2022-08-05T10:53:27.247Z,990.33
2022-08-05T10:54:31.823Z,990.37
2022-08-05T10:55:32.933Z,990.4
2022-08-05T10:56:32.465Z,990.39
2022-08-05T10:57:34.954Z,990.4
2022-08-05T10:58:48.796Z,990.37
2022-08-05T11:00:04.362Z,990.36
2022-08-05T11:00:42.237Z,990.37
2022-08-05T11:01:55.203Z,990.38
2022-08-05T11:02:43.718Z,990.38
2022-08-05T11:03:44.644Z,990.45
2022-08-05T11:04:46.550Z,990.42
2022-08-05T11:05:49.520Z,990.38
2022-08-05T11:06:50.040Z,990.41
2022-08-05T11:08:02.476Z,990.4
2022-08-05T11:08:53.231Z,990.41
2022-08-05T11:10:03.812Z,990.41
2022-08-05T11:11:00.954Z,990.47
2022-08-05T11:11:58.444Z,990.48
2022-08-05T11:13:01.228Z,990.51
2022-08-05T11:14:01.924Z,990.51
2022-08-05T11:15:19.312Z,990.4
2022-08-05T11:16:05.478Z,990.42
2022-08-05T11:17:59.014Z,990.39
2022-08-05T11:18:09.655Z,990.41
2022-08-05T11:20:11.339Z,990.35
2022-08-05T11:20:18.423Z,990.31
2022-08-05T11:21:14.054Z,990.3
2022-08-05T11:22:15.923Z,990.27
2022-08-05T11:23:17.533Z,990.36
2022-08-05T11:24:30.699Z,990.27
2022-08-05T11:26:04.137Z,990.29
2022-08-05T11:26:29.061Z,990.23
2022-08-05T11:27:24.734Z,990.21
2022-08-05T11:28:26.808Z,990.22
2022-08-05T11:29:27.920Z,990.22
2022-08-05T11:30:29.741Z,990.23
2022-08-05T11:31:54.291Z,990.27
2022-08-05T11:32:33.283Z,990.28
2022-08-05T11:33:46.062Z,990.28
2022-08-05T11:34:36.612Z,990.33
2022-08-05T11:35:38.368Z,990.37
2022-08-05T11:36:42.756Z,990.42
2022-08-05T11:38:28.187Z,990.46
2022-08-05T11:38:45.940Z,990.46
2022-08-05T11:39:48.277Z,990.48
2022-08-05T11:40:47.046Z,990.49
2022-08-05T11:42:01.216Z,990.51
2022-08-05T11:42:50.487Z,990.49
2022-08-05T11:44:05.932Z,990.5
2022-08-05T11:44:54.435Z,990.53
2022-08-05T11:46:23.396Z,990.48
2022-08-05T11:47:09.880Z,990.55
2022-08-05T11:47:59.365Z,990.58
2022-08-05T11:49:00.897Z,990.59
2022-08-05T11:50:02.636Z,990.59
2022-08-05T11:51:09.305Z,990.59
2022-08-05T11:52:08.759Z,990.61
2022-08-05T11:53:10.060Z,990.59
2022-08-05T11:54:09.577Z,990.58
2022-08-05T11:55:11.318Z,990.62
2022-08-05T11:56:13.027Z,990.66
2022-08-05T11:57:25.580Z,990.64
2022-08-05T11:58:17.434Z,990.64
2022-08-05T11:59:21.329Z,990.66
2022-08-05T12:00:19.989Z,990.64
2022-08-05T12:01:21.730Z,990.6
2022-08-05T12:02:30.367Z,990.67
2022-08-05T12:03:31.602Z,990.66
2022-08-05T12:04:26.932Z,990.74
2022-08-05T12:05:29.045Z,990.68
2022-08-05T12:06:30.562Z,990.74
2022-08-05T12:08:08.264Z,990.71
2022-08-05T12:08:33.879Z,990.75
2022-08-05T12:09:38.706Z,990.79
2022-08-05T12:10:43.601Z,990.82
2022-08-05T12:11:40.410Z,990.8
2022-08-05T12:12:46.642Z,990.79
2022-08-05T12:13:48.490Z,990.75
2022-08-05T12:14:47.326Z,990.75
2022-08-05T12:15:50.188Z,990.75
2022-08-05T12:16:47.719Z,990.8
2022-08-05T12:18:04.342Z,990.79
2022-08-05T12:18:53.331Z,990.75
2022-08-05T12:20:17.664Z,990.7
2022-08-05T12:20:54.760Z,990.7
2022-08-05T12:21:56.410Z,990.72
2022-08-05T12:22:58.114Z,990.72
2022-08-05T12:24:05.019Z,990.74
2022-08-05T12:25:01.832Z,990.75
2022-08-05T12:26:04.340Z,990.76
2022-08-05T12:27:09.741Z,990.81
2022-08-05T12:28:06.827Z,990.82
2022-08-05T12:29:09.410Z,990.9
2022-08-05T12:30:10.268Z,990.92
2022-08-05T12:31:12.141Z,990.91
2022-08-05T12:32:14.054Z,990.9
2022-08-05T12:33:27.622Z,990.9
2022-08-05T12:34:20.404Z,990.95
2022-08-05T12:35:21.688Z,990.95
2022-08-05T12:36:20.750Z,990.94
2022-08-05T12:37:22.541Z,991.01
2022-08-05T12:38:30.265Z,990.98
2022-08-05T12:39:34.402Z,991
2022-08-05T12:40:28.743Z,990.98
2022-08-05T12:41:34.310Z,991.03
2022-08-05T12:42:31.088Z,991.06
2022-08-05T12:43:32.870Z,991.06
2022-08-05T12:44:34.586Z,991.04
2022-08-05T12:45:50.072Z,991
2022-08-05T12:46:38.042Z,991.05
2022-08-05T12:47:43.511Z,991.06
2022-08-05T12:48:41.530Z,991.06
2022-08-05T12:50:04.403Z,991.05
2022-08-05T12:50:44.941Z,991.07
2022-08-05T12:52:11.000Z,991.07
2022-08-05T12:52:48.512Z,991.07